createdAt,value
2022-12-24T00:01:09.757Z,6.47
2022-12-24T00:03:39.375Z,12.90
2022-12-24T00:06:08.026Z,6.70
2022-12-24T00:08:37.778Z,11.70
2022-12-24T00:11:05.847Z,10.00
2022-12-24T00:13:34.036Z,9.40
2022-12-24T00:16:02.486Z,7.07
2022-12-24T00:18:30.279Z,11.83
2022-12-24T00:20:58.025Z,9.80
2022-12-24T00:23:25.897Z,9.37
2022-12-24T00:25:55.445Z,7.70
2022-12-24T00:28:23.763Z,6.47
2022-12-24T00:30:51.589Z,7.90
2022-12-24T00:33:24.224Z,5.20
2022-12-24T00:35:53.794Z,9.20
2022-12-24T00:38:21.655Z,7.87
2022-12-24T00:40:49.399Z,11.10
2022-12-24T00:43:18.554Z,10.20
2022-12-24T00:45:46.290Z,12.53
2022-12-24T00:48:14.118Z,7.90
2022-12-24T00:50:41.918Z,9.10
2022-12-24T00:53:09.750Z,7.77
2022-12-24T00:55:37.510Z,7.60
2022-12-24T00:58:05.343Z,8.60
2022-12-24T01:00:35.072Z,8.47
2022-12-24T01:03:02.854Z,10.00
2022-12-24T01:05:29.631Z,9.60
2022-12-24T01:07:57.398Z,7.63
2022-12-24T01:10:25.259Z,7.13
2022-12-24T01:12:53.108Z,9.67
2022-12-24T01:15:21.014Z,10.57
2022-12-24T01:17:50.091Z,9.10
2022-12-24T01:20:18.367Z,9.50
2022-12-24T01:22:46.643Z,9.47
2022-12-24T01:25:15.872Z,8.40
2022-12-24T01:27:43.679Z,11.33
2022-12-24T01:30:14.933Z,10.23
2022-12-24T01:32:43.248Z,7.47
2022-12-24T01:35:12.910Z,9.73
2022-12-24T01:37:41.075Z,4.97
2022-12-24T01:40:25.734Z,11.60
2022-12-24T01:43:11.586Z,9.17
2022-12-24T01:45:47.122Z,7.77
2022-12-24T01:48:23.250Z,9.33
2022-12-24T01:50:57.255Z,8.97
2022-12-24T01:53:25.412Z,8.27
2022-12-24T01:55:54.152Z,7.13
2022-12-24T01:58:25.217Z,6.10
2022-12-24T02:00:53.045Z,8.77
2022-12-24T02:03:22.405Z,13.60
2022-12-24T02:05:53.439Z,8.90
2022-12-24T02:08:21.773Z,6.17
2022-12-24T02:10:50.497Z,11.13
2022-12-24T02:13:22.164Z,10.03
2022-12-24T02:16:01.065Z,7.90
2022-12-24T02:18:38.660Z,10.63
2022-12-24T02:21:45.122Z,6.53
2022-12-24T02:24:33.651Z,7.53
2022-12-24T02:27:20.294Z,10.97
2022-12-24T02:30:05.084Z,8.33
2022-12-24T02:32:40.717Z,9.67
2022-12-24T02:35:14.476Z,6.37
2022-12-24T02:37:49.881Z,9.10
2022-12-24T02:40:22.992Z,7.30
2022-12-24T02:42:56.062Z,10.53
2022-12-24T02:45:31.045Z,11.20
2022-12-24T02:47:59.575Z,8.27
2022-12-24T02:50:28.438Z,7.17
2022-12-24T02:52:56.349Z,7.77
2022-12-24T02:55:28.929Z,9.43
2022-12-24T02:58:12.037Z,11.60
2022-12-24T03:01:17.258Z,10.93
2022-12-24T03:04:01.802Z,9.70
2022-12-24T03:06:38.371Z,9.13
2022-12-24T03:09:15.365Z,7.07
2022-12-24T03:11:49.355Z,10.17
2022-12-24T03:14:18.514Z,11.70
2022-12-24T03:16:48.446Z,9.23
2022-12-24T03:19:17.036Z,13.40
2022-12-24T03:21:46.514Z,8.27
2022-12-24T03:24:14.324Z,6.27
2022-12-24T03:26:43.545Z,12.17
2022-12-24T03:29:11.868Z,12.00
2022-12-24T03:31:44.843Z,12.63
2022-12-24T03:34:15.609Z,13.10
2022-12-24T03:36:43.895Z,10.37
2022-12-24T03:39:12.077Z,10.30
2022-12-24T03:41:39.882Z,6.07
2022-12-24T03:44:07.689Z,11.67
2022-12-24T03:46:35.567Z,8.87
2022-12-24T03:49:03.416Z,12.03
2022-12-24T03:51:33.485Z,6.90
2022-12-24T03:54:01.901Z,10.00
2022-12-24T03:56:29.806Z,10.13
2022-12-24T03:58:57.652Z,6.17
2022-12-24T04:01:25.635Z,7.40
2022-12-24T04:03:53.642Z,7.90
2022-12-24T04:06:21.564Z,7.00
2022-12-24T04:08:50.757Z,9.27
2022-12-24T04:11:19.118Z,7.10
2022-12-24T04:13:50.319Z,10.87
2022-12-24T04:16:18.505Z,8.07
2022-12-24T04:18:47.508Z,11.97
2022-12-24T04:21:15.334Z,9.60
2022-12-24T04:23:43.845Z,7.80
2022-12-24T04:26:14.176Z,10.70
2022-12-24T04:28:43.466Z,14.97
2022-12-24T04:31:16.715Z,8.07
2022-12-24T04:33:45.131Z,9.60
2022-12-24T04:36:17.112Z,11.57
2022-12-24T04:38:45.743Z,7.23
2022-12-24T04:41:23.089Z,8.23
2022-12-24T04:43:52.959Z,5.67
2022-12-24T04:46:23.173Z,10.53
2022-12-24T04:48:53.060Z,7.90
2022-12-24T04:51:22.093Z,8.73
2022-12-24T04:53:50.332Z,10.57
2022-12-24T04:56:21.397Z,7.33
2022-12-24T04:58:49.779Z,12.13
2022-12-24T05:01:19.943Z,7.50
2022-12-24T05:03:48.160Z,7.17
2022-12-24T05:06:18.674Z,9.57
2022-12-24T05:08:46.663Z,10.70
2022-12-24T05:11:15.713Z,9.43
2022-12-24T05:13:47.683Z,8.20
2022-12-24T05:16:17.548Z,8.33
2022-12-24T05:18:46.075Z,5.60
2022-12-24T05:21:16.890Z,9.97
2022-12-24T05:24:02.655Z,10.60
2022-12-24T05:26:33.420Z,12.17
2022-12-24T05:29:03.569Z,11.30
2022-12-24T05:31:33.484Z,11.77
2022-12-24T05:34:01.898Z,12.70
2022-12-24T05:36:30.303Z,9.97
2022-12-24T05:38:58.352Z,10.33
2022-12-24T05:41:26.378Z,12.10
2022-12-24T05:43:54.207Z,10.83
2022-12-24T05:46:24.861Z,13.77
2022-12-24T05:48:53.780Z,10.47
2022-12-24T05:51:23.559Z,10.00
2022-12-24T05:53:52.539Z,9.03
2022-12-24T05:56:22.160Z,9.97
2022-12-24T05:58:50.780Z,8.30
2022-12-24T06:01:19.152Z,12.53
2022-12-24T06:03:49.728Z,12.03
2022-12-24T06:06:20.844Z,10.70
2022-12-24T06:08:49.735Z,10.33
2022-12-24T06:11:20.171Z,7.07
2022-12-24T06:13:48.266Z,10.67
2022-12-24T06:16:18.398Z,9.30
2022-12-24T06:18:48.213Z,10.87
2022-12-24T06:21:16.465Z,10.20
2022-12-24T06:23:46.527Z,7.07
2022-12-24T06:26:16.900Z,10.03
2022-12-24T06:28:45.614Z,6.87
2022-12-24T06:31:15.525Z,11.57
2022-12-24T06:33:43.384Z,7.23
2022-12-24T06:36:17.854Z,9.83
2022-12-24T06:38:46.458Z,10.10
2022-12-24T06:41:14.808Z,6.97
2022-12-24T06:43:46.017Z,9.37
2022-12-24T06:46:14.263Z,8.70
2022-12-24T06:48:42.102Z,6.00
2022-12-24T06:51:09.843Z,11.30
2022-12-24T06:53:39.619Z,6.23
2022-12-24T06:56:09.892Z,9.10
2022-12-24T06:58:38.325Z,9.37
2022-12-24T07:01:07.821Z,10.87
2022-12-24T07:03:35.871Z,11.73
2022-12-24T07:06:03.890Z,12.80
2022-12-24T07:08:33.592Z,9.90
2022-12-24T07:11:03.152Z,10.57
2022-12-24T07:13:32.084Z,11.47
2022-12-24T07:16:00.100Z,10.77
2022-12-24T07:18:28.841Z,11.40
2022-12-24T07:20:56.815Z,13.97
2022-12-24T07:23:24.683Z,11.73
2022-12-24T07:25:52.593Z,16.80
2022-12-24T07:28:27.543Z,15.60
2022-12-24T07:30:56.099Z,11.37
2022-12-24T07:33:24.233Z,13.00
2022-12-24T07:36:02.153Z,15.77
2022-12-24T07:38:31.508Z,11.83
2022-12-24T07:41:00.034Z,12.90
2022-12-24T07:43:29.333Z,14.93
2022-12-24T07:45:58.039Z,10.47
2022-12-24T07:48:27.805Z,15.83
2022-12-24T07:50:55.763Z,9.10
2022-12-24T07:53:24.268Z,13.57
2022-12-24T07:55:52.112Z,12.53
2022-12-24T07:58:20.078Z,16.47
2022-12-24T08:00:49.521Z,10.20
2022-12-24T08:03:18.476Z,15.00
2022-12-24T08:05:47.017Z,15.57
2022-12-24T08:08:14.874Z,15.13
2022-12-24T08:10:43.737Z,21.23
2022-12-24T08:13:11.706Z,13.13
2022-12-24T08:15:39.528Z,16.47
2022-12-24T08:18:09.142Z,12.40
2022-12-24T08:20:39.229Z,16.33
2022-12-24T08:23:07.275Z,16.40
2022-12-24T08:25:35.447Z,17.93
2022-12-24T08:28:03.692Z,15.00
2022-12-24T08:30:31.487Z,10.73
2022-12-24T08:32:59.239Z,12.47
2022-12-24T08:35:28.355Z,11.93
2022-12-24T08:37:56.096Z,13.73
2022-12-24T08:40:24.038Z,14.00
2022-12-24T08:42:51.853Z,16.27
2022-12-24T08:45:19.976Z,11.87
2022-12-24T08:47:50.763Z,9.30
2022-12-24T08:50:18.705Z,15.90
2022-12-24T08:52:54.063Z,10.37
2022-12-24T08:55:23.850Z,11.03
2022-12-24T08:57:51.700Z,10.03
2022-12-24T09:00:20.135Z,15.33
2022-12-24T09:02:48.006Z,14.63
2022-12-24T09:05:16.105Z,15.20
2022-12-24T09:07:44.004Z,16.07
2022-12-24T09:10:13.557Z,14.20
2022-12-24T09:12:41.387Z,16.03
2022-12-24T09:15:10.412Z,16.90
2022-12-24T09:17:38.710Z,21.10
2022-12-24T09:20:07.910Z,19.60
2022-12-24T09:22:37.108Z,20.03
2022-12-24T09:25:07.173Z,15.57
2022-12-24T09:27:36.324Z,17.93
2022-12-24T09:30:06.412Z,20.17
2022-12-24T09:32:34.293Z,15.63
2022-12-24T09:35:02.254Z,18.17
2022-12-24T09:37:30.028Z,13.33
2022-12-24T09:39:58.013Z,15.77
2022-12-24T09:42:42.466Z,20.80
2022-12-24T09:45:18.009Z,24.23
2022-12-24T09:47:51.133Z,21.77
2022-12-24T09:50:30.212Z,27.40
2022-12-24T09:52:59.650Z,16.90
2022-12-24T09:55:31.215Z,16.03
2022-12-24T09:58:03.391Z,22.63
2022-12-24T10:00:34.855Z,17.80
2022-12-24T10:03:02.806Z,20.97
2022-12-24T10:05:38.436Z,20.10
2022-12-24T10:08:14.389Z,18.30
2022-12-24T10:10:51.832Z,20.73
2022-12-24T10:13:31.624Z,14.70
2022-12-24T10:16:04.266Z,18.90
2022-12-24T10:18:44.243Z,28.90
2022-12-24T10:21:17.583Z,22.27
2022-12-24T10:23:50.101Z,15.27
2022-12-24T10:26:25.902Z,26.03
2022-12-24T10:28:59.626Z,16.43
2022-12-24T10:31:30.663Z,27.10
2022-12-24T10:34:03.070Z,22.03
2022-12-24T10:36:32.157Z,20.57
2022-12-24T10:39:00.606Z,19.93
2022-12-24T10:41:30.167Z,23.23
2022-12-24T10:44:00.974Z,17.83
2022-12-24T10:46:36.080Z,14.17
2022-12-24T10:49:15.515Z,21.73
2022-12-24T10:51:48.086Z,14.57
2022-12-24T10:54:26.220Z,16.20
2022-12-24T10:56:58.603Z,16.07
2022-12-24T10:59:30.787Z,20.17
2022-12-24T11:02:00.040Z,12.60
2022-12-24T11:04:30.167Z,17.87
2022-12-24T11:06:59.810Z,15.13
2022-12-24T11:09:30.428Z,14.87
2022-12-24T11:12:03.883Z,20.70
2022-12-24T11:14:39.829Z,17.53
2022-12-24T11:17:07.799Z,20.07
2022-12-24T11:19:38.760Z,16.67
2022-12-24T11:22:08.961Z,16.33
2022-12-24T11:24:38.991Z,11.90
2022-12-24T11:27:32.137Z,14.43
2022-12-24T11:30:23.771Z,17.07
2022-12-24T11:33:12.944Z,15.60
2022-12-24T11:35:44.579Z,14.60
2022-12-24T11:38:14.171Z,15.83
2022-12-24T11:40:44.833Z,16.00
2022-12-24T11:43:18.216Z,16.47
2022-12-24T11:45:55.791Z,18.77
2022-12-24T11:48:29.711Z,16.00
2022-12-24T11:50:59.466Z,13.03
2022-12-24T11:53:31.790Z,14.23
2022-12-24T11:56:03.620Z,11.37
2022-12-24T11:58:38.735Z,14.80
2022-12-24T12:01:17.220Z,10.87
2022-12-24T12:03:49.830Z,19.10
2022-12-24T12:06:28.583Z,11.87
2022-12-24T12:08:58.633Z,14.80
2022-12-24T12:11:28.431Z,14.57
2022-12-24T12:13:59.315Z,20.53
2022-12-24T12:16:54.276Z,17.73
2022-12-24T12:19:26.095Z,12.60
2022-12-24T12:21:54.231Z,16.40
2022-12-24T12:24:31.783Z,13.50
2022-12-24T12:27:08.877Z,16.70
2022-12-24T12:29:43.241Z,11.80
2022-12-24T12:32:22.616Z,19.83
2022-12-24T12:35:01.498Z,16.30
2022-12-24T12:37:36.587Z,14.17
2022-12-24T12:40:05.321Z,12.50
2022-12-24T12:42:35.856Z,13.00
2022-12-24T12:45:36.906Z,16.33
2022-12-24T12:48:30.710Z,15.27
2022-12-24T12:51:08.337Z,15.50
2022-12-24T12:53:49.116Z,12.20
2022-12-24T12:56:27.239Z,14.60
2022-12-24T12:59:01.340Z,7.17
2022-12-24T13:01:41.184Z,13.90
2022-12-24T13:04:35.796Z,10.17
2022-12-24T13:07:31.439Z,13.37
2022-12-24T13:10:24.663Z,10.93
2022-12-24T13:13:16.997Z,10.57
2022-12-24T13:16:03.152Z,10.73
2022-12-24T13:18:53.245Z,12.90
2022-12-24T13:21:26.580Z,12.87
2022-12-24T13:24:06.891Z,13.70
2022-12-24T13:26:34.978Z,14.17
2022-12-24T13:29:36.023Z,10.30
2022-12-24T13:32:40.121Z,18.63
2022-12-24T13:35:43.604Z,17.33
2022-12-24T13:38:42.213Z,13.83
2022-12-24T13:41:42.835Z,14.80
2022-12-24T13:44:22.200Z,16.27
2022-12-24T13:46:56.426Z,19.77
2022-12-24T13:49:29.862Z,11.83
2022-12-24T13:52:19.324Z,15.57
2022-12-24T13:55:01.476Z,13.67
2022-12-24T13:57:34.234Z,15.03
2022-12-24T14:00:05.634Z,14.53
2022-12-24T14:02:38.375Z,14.73
2022-12-24T14:05:21.455Z,11.47
2022-12-24T14:07:51.616Z,12.83
2022-12-24T14:10:25.012Z,17.87
2022-12-24T14:12:53.789Z,14.07
2022-12-24T14:16:04.466Z,14.10
2022-12-24T14:18:36.292Z,15.40
2022-12-24T14:21:05.706Z,12.87
2022-12-24T14:23:52.499Z,13.03
2022-12-24T14:26:24.097Z,16.87
2022-12-24T14:28:56.650Z,11.57
2022-12-24T14:31:24.986Z,14.10
2022-12-24T14:33:53.109Z,9.10
2022-12-24T14:36:24.489Z,12.37
2022-12-24T14:38:52.460Z,17.60
2022-12-24T14:41:33.667Z,11.33
2022-12-24T14:44:11.226Z,10.47
2022-12-24T14:46:45.023Z,15.73
2022-12-24T14:49:23.103Z,17.87
2022-12-24T14:52:01.405Z,14.60
2022-12-24T14:54:39.334Z,21.13
2022-12-24T14:57:23.406Z,15.33
2022-12-24T14:59:53.740Z,20.67
2022-12-24T15:02:31.459Z,14.73
2022-12-24T15:05:07.432Z,13.50
2022-12-24T15:07:39.526Z,20.60
2022-12-24T15:10:28.620Z,18.43
2022-12-24T15:13:02.580Z,18.37
2022-12-24T15:15:30.862Z,14.47
2022-12-24T15:18:00.154Z,14.20
2022-12-24T15:20:30.460Z,20.57
2022-12-24T15:23:00.098Z,13.73
2022-12-24T15:25:30.852Z,18.97
2022-12-24T15:28:00.389Z,19.23
2022-12-24T15:30:30.893Z,18.27
2022-12-24T15:32:59.348Z,17.90
2022-12-24T15:35:32.596Z,17.67
2022-12-24T15:38:01.324Z,17.87
2022-12-24T15:40:31.658Z,17.00
2022-12-24T15:43:01.176Z,20.07
2022-12-24T15:45:36.399Z,14.83
2022-12-24T15:48:09.886Z,17.83
2022-12-24T15:50:39.539Z,15.07
2022-12-24T15:53:20.422Z,17.07
2022-12-24T15:56:06.284Z,17.63
2022-12-24T15:58:37.010Z,16.70
2022-12-24T16:01:23.881Z,14.80
2022-12-24T16:04:00.926Z,13.50
2022-12-24T16:06:29.471Z,15.33
2022-12-24T16:08:58.692Z,16.87
2022-12-24T16:11:34.254Z,16.23
2022-12-24T16:14:08.297Z,14.73
2022-12-24T16:16:39.438Z,17.80
2022-12-24T16:19:08.779Z,13.97
2022-12-24T16:21:39.086Z,15.90
2022-12-24T16:24:14.813Z,20.03
2022-12-24T16:26:45.523Z,14.97
2022-12-24T16:29:15.446Z,16.17
2022-12-24T16:31:46.522Z,23.60
2022-12-24T16:34:17.038Z,15.87
2022-12-24T16:36:46.897Z,13.90
2022-12-24T16:39:25.910Z,15.77
2022-12-24T16:42:12.755Z,12.67
2022-12-24T16:44:42.647Z,21.60
2022-12-24T16:47:14.015Z,11.57
2022-12-24T16:49:41.882Z,16.33
2022-12-24T16:52:18.535Z,16.37
2022-12-24T16:54:49.318Z,16.07
2022-12-24T16:57:20.038Z,12.90
2022-12-24T16:59:49.315Z,13.70
2022-12-24T17:02:24.818Z,15.07
2022-12-24T17:04:53.040Z,14.60
2022-12-24T17:07:21.936Z,16.07
2022-12-24T17:09:50.039Z,17.07
2022-12-24T17:12:17.910Z,15.40
2022-12-24T17:14:45.741Z,11.63
2022-12-24T17:17:22.808Z,16.90
2022-12-24T17:19:50.824Z,15.80
2022-12-24T17:22:18.940Z,12.17
2022-12-24T17:24:47.107Z,13.67
2022-12-24T17:27:15.092Z,16.03
2022-12-24T17:29:43.339Z,12.77
2022-12-24T17:32:11.318Z,16.37
2022-12-24T17:34:41.429Z,14.40
2022-12-24T17:37:09.374Z,10.50
2022-12-24T17:39:37.219Z,9.30
2022-12-24T17:42:05.567Z,13.07
2022-12-24T17:44:33.446Z,13.23
2022-12-24T17:47:01.918Z,11.57
2022-12-24T17:49:29.983Z,14.63
2022-12-24T17:51:59.260Z,12.80
2022-12-24T17:54:27.087Z,11.20
2022-12-24T17:56:54.954Z,17.60
2022-12-24T17:59:22.780Z,14.63
2022-12-24T18:01:50.597Z,14.13
2022-12-24T18:04:18.460Z,24.17
2022-12-24T18:06:49.599Z,17.23
2022-12-24T18:09:19.425Z,30.43
2022-12-24T18:11:47.330Z,23.13
2022-12-24T18:14:15.463Z,15.77
2022-12-24T18:16:43.783Z,16.07
2022-12-24T18:19:12.880Z,17.13
2022-12-24T18:21:41.230Z,9.93
2022-12-24T18:24:10.034Z,10.50
2022-12-24T18:26:39.359Z,13.27
2022-12-24T18:29:08.677Z,11.73
2022-12-24T18:31:36.947Z,8.87
2022-12-24T18:34:06.837Z,8.13
2022-12-24T18:36:35.149Z,17.37
2022-12-24T18:39:03.072Z,11.93
2022-12-24T18:41:32.168Z,14.27
2022-12-24T18:44:01.358Z,12.70
2022-12-24T18:46:32.685Z,16.70
2022-12-24T18:49:01.891Z,12.80
2022-12-24T18:51:31.119Z,10.67
2022-12-24T18:53:59.049Z,17.73
2022-12-24T18:56:27.771Z,20.53
2022-12-24T18:58:57.801Z,11.60
2022-12-24T19:01:28.616Z,13.10
2022-12-24T19:03:56.967Z,15.60
2022-12-24T19:06:25.261Z,16.20
2022-12-24T19:09:01.804Z,13.27
2022-12-24T19:11:34.671Z,17.03
2022-12-24T19:14:04.123Z,15.47
2022-12-24T19:16:36.419Z,17.03
2022-12-24T19:19:05.712Z,20.60
2022-12-24T19:21:33.809Z,10.93
2022-12-24T19:24:02.044Z,10.17
2022-12-24T19:26:29.831Z,16.17
2022-12-24T19:29:00.241Z,15.60
2022-12-24T19:31:29.403Z,32.37
2022-12-24T19:33:59.035Z,35.47
2022-12-24T19:36:28.908Z,34.67
2022-12-24T19:38:57.037Z,43.30
2022-12-24T19:41:28.191Z,45.13
2022-12-24T19:43:57.756Z,52.47
2022-12-24T19:46:27.955Z,50.83
2022-12-24T19:48:59.300Z,44.37
2022-12-24T19:51:28.394Z,27.90
2022-12-24T19:53:57.576Z,24.23
2022-12-24T19:56:27.769Z,23.77
2022-12-24T19:58:57.318Z,24.13
2022-12-24T20:01:29.954Z,24.27
2022-12-24T20:04:00.138Z,24.67
2022-12-24T20:06:33.023Z,22.73
2022-12-24T20:09:01.567Z,26.43
2022-12-24T20:11:30.190Z,17.47
2022-12-24T20:13:59.554Z,18.90
2022-12-24T20:16:31.135Z,22.90
2022-12-24T20:19:03.273Z,19.77
2022-12-24T20:21:31.136Z,21.10
2022-12-24T20:23:59.149Z,22.33
2022-12-24T20:26:28.753Z,14.00
2022-12-24T20:28:56.653Z,18.77
2022-12-24T20:31:26.483Z,19.47
2022-12-24T20:33:54.948Z,17.43
2022-12-24T20:36:25.006Z,15.37
2022-12-24T20:38:53.470Z,11.67
2022-12-24T20:41:23.531Z,17.57
2022-12-24T20:43:52.095Z,19.50
2022-12-24T20:46:22.534Z,15.63
2022-12-24T20:48:50.955Z,17.90
2022-12-24T20:51:24.776Z,14.40
2022-12-24T20:53:56.288Z,19.00
2022-12-24T20:56:24.435Z,18.03
2022-12-24T20:58:52.389Z,17.07
2022-12-24T21:01:24.279Z,15.50
2022-12-24T21:03:53.255Z,20.90
2022-12-24T21:06:21.442Z,17.67
2022-12-24T21:08:50.592Z,20.10
2022-12-24T21:11:37.490Z,22.27
2022-12-24T21:14:05.712Z,13.90
2022-12-24T21:16:34.907Z,16.23
2022-12-24T21:19:03.435Z,16.00
2022-12-24T21:21:31.305Z,17.07
2022-12-24T21:23:59.167Z,16.47
2022-12-24T21:26:28.385Z,19.03
2022-12-24T21:28:56.225Z,29.73
2022-12-24T21:31:24.131Z,25.30
2022-12-24T21:33:52.098Z,23.20
2022-12-24T21:36:20.739Z,21.47
2022-12-24T21:38:48.935Z,18.53
2022-12-24T21:41:19.728Z,18.53
2022-12-24T21:43:48.892Z,17.60
2022-12-24T21:46:23.009Z,19.97
2022-12-24T21:49:09.568Z,15.60
2022-12-24T21:51:38.790Z,19.60
2022-12-24T21:54:24.157Z,20.33
2022-12-24T21:57:10.299Z,18.13
2022-12-24T21:59:39.927Z,17.57
2022-12-24T22:02:08.473Z,17.60
2022-12-24T22:04:36.360Z,19.80
2022-12-24T22:07:21.933Z,16.47
2022-12-24T22:10:18.685Z,17.33
2022-12-24T22:12:46.431Z,17.80
2022-12-24T22:15:15.520Z,21.53
2022-12-24T22:17:43.304Z,22.37
2022-12-24T22:20:11.683Z,16.90
2022-12-24T22:22:39.456Z,21.03
2022-12-24T22:25:07.863Z,22.67
2022-12-24T22:27:36.062Z,26.50
2022-12-24T22:30:04.092Z,23.13
2022-12-24T22:32:33.600Z,27.83
2022-12-24T22:35:01.483Z,21.97
2022-12-24T22:37:29.404Z,22.83
2022-12-24T22:39:57.193Z,27.73
2022-12-24T22:42:25.046Z,24.77
2022-12-24T22:44:52.815Z,26.33
2022-12-24T22:47:20.601Z,28.83
2022-12-24T22:49:50.297Z,22.27
2022-12-24T22:52:18.150Z,24.73
2022-12-24T22:54:46.130Z,19.90
2022-12-24T22:57:14.021Z,22.97
2022-12-24T22:59:41.894Z,21.90
2022-12-24T23:02:09.935Z,22.67
2022-12-24T23:04:38.745Z,28.57
2022-12-24T23:07:10.205Z,25.20
2022-12-24T23:09:38.432Z,26.23
2022-12-24T23:12:06.973Z,27.03
2022-12-24T23:14:52.295Z,23.47
2022-12-24T23:17:20.211Z,20.73
2022-12-24T23:19:48.145Z,22.87
2022-12-24T23:22:17.387Z,22.50
2022-12-24T23:24:45.337Z,22.33
2022-12-24T23:27:13.358Z,28.83
2022-12-24T23:29:41.244Z,34.50
2022-12-24T23:32:09.097Z,32.73
2022-12-24T23:34:36.896Z,28.67
2022-12-24T23:37:04.757Z,24.23
2022-12-24T23:39:33.871Z,25.43
2022-12-24T23:42:01.791Z,24.73
2022-12-24T23:44:32.542Z,21.73
2022-12-24T23:47:00.928Z,26.60
2022-12-24T23:49:28.901Z,26.50
2022-12-24T23:51:56.763Z,31.87
2022-12-24T23:54:24.636Z,27.70
2022-12-24T23:56:53.863Z,22.23
2022-12-24T23:59:21.767Z,31.67
